Terminal Aerodrome Forecast
Issued by NWS

Home | Current Version | Previous Version | Text Only | Print | Product List | Glossary On
Versions: 1 2 3 4 5 6 7 8 9 10 11 12 13 14 15 16 17 18 19 20 21 22 23 24 25
000
FTUS43 KDVN 042331
TAFCID
TAF
KCID 042331Z 0500/0524 08008KT P6SM FEW050 OVC100
      TEMPO 0500/0502 -RA SCT040 BKN070
     FM050200 08008KT P6SM -SHRA VCTS BKN050CB
      TEMPO 0502/0506 2SM TSRA BKN025CB
     FM050600 09005KT 4SM SHRA OVC015
     FM051300 10010KT 5SM BR VCSH OVC025
     FM051800 12012KT P6SM VCSH BKN040 OVC100=

USA.gov is the U.S. government's official web portal to all federal, state and local government web resources and services.